createdAt,value
2019-01-06T00:01:32.244Z,3.53
2019-01-06T00:04:11.541Z,3.00
2019-01-06T00:06:58.169Z,3.13
2019-01-06T00:09:36.901Z,3.57
2019-01-06T00:12:23.502Z,3.07
2019-01-06T00:15:09.853Z,2.67
2019-01-06T00:17:39.916Z,3.40
2019-01-06T00:20:25.011Z,3.00
2019-01-06T00:22:55.076Z,3.10
2019-01-06T00:25:34.144Z,3.30
2019-01-06T00:28:04.214Z,3.33
2019-01-06T00:30:40.134Z,3.57
2019-01-06T00:33:24.902Z,4.07
2019-01-06T00:36:03.889Z,3.53
2019-01-06T00:38:52.286Z,4.97
2019-01-06T00:41:27.825Z,3.70
2019-01-06T00:44:00.374Z,3.93
2019-01-06T00:46:36.378Z,2.93
2019-01-06T00:49:06.441Z,3.57
2019-01-06T00:51:52.670Z,4.13
2019-01-06T00:54:22.732Z,4.03
2019-01-06T00:56:52.813Z,3.33
2019-01-06T00:59:37.931Z,5.23
2019-01-06T01:02:24.375Z,4.93
2019-01-06T01:05:03.353Z,4.70
2019-01-06T01:07:33.443Z,4.10
2019-01-06T01:10:06.238Z,4.40
2019-01-06T01:12:39.031Z,4.87
2019-01-06T01:15:27.647Z,3.40
2019-01-06T01:18:16.137Z,3.73
2019-01-06T01:20:46.200Z,4.77
2019-01-06T01:23:32.741Z,5.23
2019-01-06T01:26:18.625Z,5.70
2019-01-06T01:29:04.891Z,5.53
2019-01-06T01:31:50.913Z,4.40
2019-01-06T01:34:38.733Z,3.97
2019-01-06T01:37:17.802Z,4.17
2019-01-06T01:39:59.862Z,4.67
2019-01-06T01:42:29.927Z,4.27
2019-01-06T01:45:08.952Z,3.97
2019-01-06T01:47:39.012Z,4.40
2019-01-06T01:50:21.000Z,3.67
2019-01-06T01:52:53.789Z,3.50
2019-01-06T01:55:23.885Z,3.90
2019-01-06T01:58:03.070Z,3.97
2019-01-06T02:00:50.986Z,4.40
2019-01-06T02:03:33.101Z,4.07
2019-01-06T02:06:06.162Z,4.27
2019-01-06T02:08:52.666Z,3.90
2019-01-06T02:11:28.650Z,3.90
2019-01-06T02:14:15.063Z,3.83
2019-01-06T02:17:00.165Z,3.47
2019-01-06T02:19:30.250Z,4.30
2019-01-06T02:22:05.798Z,3.80
2019-01-06T02:24:38.584Z,3.93
2019-01-06T02:27:24.585Z,4.83
2019-01-06T02:30:03.646Z,4.73
2019-01-06T02:32:45.821Z,4.80
2019-01-06T02:35:21.980Z,5.00
2019-01-06T02:38:07.376Z,4.60
2019-01-06T02:40:43.513Z,5.47
2019-01-06T02:43:16.580Z,5.10
2019-01-06T02:46:03.208Z,4.40
2019-01-06T02:48:48.392Z,4.13
2019-01-06T02:51:34.640Z,4.80
2019-01-06T02:54:20.794Z,4.37
2019-01-06T02:56:59.692Z,5.07
2019-01-06T02:59:35.454Z,5.17
2019-01-06T03:02:05.557Z,5.07
2019-01-06T03:04:35.694Z,5.07
2019-01-06T03:07:08.214Z,4.90
2019-01-06T03:09:40.997Z,4.60
2019-01-06T03:12:11.091Z,4.77
2019-01-06T03:14:41.151Z,5.03
2019-01-06T03:17:11.248Z,4.90
2019-01-06T03:19:57.506Z,5.00
2019-01-06T03:22:30.009Z,4.83
2019-01-06T03:25:16.096Z,4.20
2019-01-06T03:27:49.219Z,4.30
2019-01-06T03:30:25.268Z,4.00
2019-01-06T03:32:58.525Z,4.80
2019-01-06T03:35:28.591Z,4.20
2019-01-06T03:38:14.599Z,4.20
2019-01-06T03:41:02.654Z,3.97
2019-01-06T03:43:48.540Z,4.20
2019-01-06T03:46:35.051Z,5.07
2019-01-06T03:49:07.679Z,4.70
2019-01-06T03:51:37.740Z,4.83
2019-01-06T03:54:13.586Z,5.10
2019-01-06T03:56:59.848Z,4.50
2019-01-06T03:59:46.206Z,4.67
2019-01-06T04:02:16.269Z,4.20
2019-01-06T04:04:55.187Z,4.60
2019-01-06T04:07:41.271Z,4.40
2019-01-06T04:10:26.469Z,5.20
2019-01-06T04:13:02.275Z,4.70
2019-01-06T04:15:32.364Z,4.80
2019-01-06T04:18:02.423Z,4.60
2019-01-06T04:20:49.180Z,4.20
2019-01-06T04:23:25.270Z,4.13
2019-01-06T04:25:58.036Z,4.40
2019-01-06T04:28:40.016Z,4.33
2019-01-06T04:31:12.619Z,4.00
2019-01-06T04:33:48.496Z,4.77
2019-01-06T04:36:24.028Z,4.47
2019-01-06T04:39:10.212Z,4.00
2019-01-06T04:41:43.221Z,3.83
2019-01-06T04:44:15.762Z,5.03
2019-01-06T04:47:01.766Z,5.10
2019-01-06T04:49:46.570Z,5.07
2019-01-06T04:52:25.558Z,4.63
2019-01-06T04:54:55.613Z,4.60
2019-01-06T04:57:28.425Z,4.30
2019-01-06T05:00:14.451Z,4.50
2019-01-06T05:03:02.931Z,6.73
2019-01-06T05:05:38.794Z,5.60
2019-01-06T05:08:08.883Z,5.00
2019-01-06T05:10:38.947Z,4.90
2019-01-06T05:13:09.031Z,4.70
2019-01-06T05:15:39.098Z,3.93
2019-01-06T05:18:25.053Z,4.70
2019-01-06T05:21:03.751Z,4.50
2019-01-06T05:23:48.947Z,4.43
2019-01-06T05:26:19.007Z,4.90
2019-01-06T05:28:54.957Z,4.30
2019-01-06T05:31:30.739Z,4.90
2019-01-06T05:34:17.201Z,4.50
2019-01-06T05:36:47.275Z,4.27
2019-01-06T05:39:17.371Z,5.63
2019-01-06T05:41:59.463Z,4.63
2019-01-06T05:44:31.978Z,4.50
2019-01-06T05:47:10.749Z,5.67
2019-01-06T05:49:43.702Z,6.50
2019-01-06T05:52:16.410Z,5.77
2019-01-06T05:55:02.849Z,6.63
2019-01-06T05:57:41.387Z,6.17
2019-01-06T06:00:17.153Z,5.87
2019-01-06T06:02:52.921Z,6.73
2019-01-06T06:05:39.122Z,6.27
2019-01-06T06:08:12.054Z,8.20
2019-01-06T06:10:58.439Z,8.00
2019-01-06T06:13:28.517Z,9.63
2019-01-06T06:16:15.175Z,7.47
2019-01-06T06:19:01.192Z,6.00
2019-01-06T06:21:49.587Z,6.83
2019-01-06T06:24:22.403Z,7.73
2019-01-06T06:27:04.772Z,9.17
2019-01-06T06:29:51.035Z,12.57
2019-01-06T06:32:37.524Z,10.80
2019-01-06T06:35:07.626Z,10.03
2019-01-06T06:37:37.694Z,8.27
2019-01-06T06:40:10.845Z,8.53
2019-01-06T06:42:49.977Z,8.20
2019-01-06T06:45:35.133Z,9.20
2019-01-06T06:48:07.779Z,9.47
2019-01-06T06:50:37.875Z,8.20
2019-01-06T06:53:10.635Z,6.40
2019-01-06T06:55:56.973Z,7.47
2019-01-06T06:58:27.046Z,9.60
2019-01-06T07:01:19.357Z,8.60
2019-01-06T07:04:04.306Z,9.23
2019-01-06T07:06:50.963Z,7.00
2019-01-06T07:09:39.443Z,7.63
2019-01-06T07:12:24.783Z,8.40
2019-01-06T07:15:00.598Z,9.90
2019-01-06T07:18:05.451Z,7.10
2019-01-06T07:20:41.330Z,8.27
2019-01-06T07:23:27.791Z,9.00
2019-01-06T07:26:00.942Z,8.10
2019-01-06T07:28:46.938Z,7.20
2019-01-06T07:31:17.019Z,8.40
2019-01-06T07:33:49.991Z,7.80
2019-01-06T07:36:35.316Z,6.40
2019-01-06T07:39:21.619Z,7.50
2019-01-06T07:42:06.591Z,7.73
2019-01-06T07:44:39.336Z,8.87
2019-01-06T07:47:24.477Z,9.50
2019-01-06T07:50:00.203Z,8.57
2019-01-06T07:52:46.528Z,8.90
2019-01-06T07:55:31.727Z,10.97
2019-01-06T07:58:01.825Z,10.13
2019-01-06T08:00:31.882Z,9.90
2019-01-06T08:03:13.809Z,11.73
2019-01-06T08:05:43.891Z,10.40
2019-01-06T08:08:19.687Z,7.70
2019-01-06T08:10:49.760Z,8.70
2019-01-06T08:13:19.857Z,6.60
2019-01-06T08:15:55.669Z,6.40
2019-01-06T08:18:41.934Z,6.70
2019-01-06T08:21:28.287Z,5.53
2019-01-06T08:24:00.845Z,5.63
2019-01-06T08:26:36.606Z,5.53
2019-01-06T08:29:12.423Z,5.80
2019-01-06T08:31:45.166Z,6.23
2019-01-06T08:34:33.089Z,4.97
2019-01-06T08:37:03.217Z,5.30
2019-01-06T08:39:36.322Z,5.60
2019-01-06T08:42:22.604Z,5.50
2019-01-06T08:45:07.738Z,6.13
2019-01-06T08:47:40.495Z,4.90
2019-01-06T08:50:13.585Z,5.63
2019-01-06T08:52:43.662Z,6.03
2019-01-06T08:55:29.759Z,4.93
2019-01-06T08:58:16.363Z,5.50
2019-01-06T09:01:02.564Z,6.33
2019-01-06T09:03:47.599Z,6.40
2019-01-06T09:06:33.994Z,7.37
2019-01-06T09:09:04.057Z,7.87
2019-01-06T09:11:50.288Z,8.00
2019-01-06T09:14:36.298Z,8.70
2019-01-06T09:17:09.306Z,9.33
2019-01-06T09:19:54.069Z,7.33
2019-01-06T09:22:42.099Z,6.60
2019-01-06T09:25:27.546Z,7.70
2019-01-06T09:28:15.893Z,7.70
2019-01-06T09:31:02.055Z,7.70
2019-01-06T09:33:34.602Z,7.00
2019-01-06T09:36:20.860Z,6.33
2019-01-06T09:39:02.593Z,6.13
2019-01-06T09:41:32.677Z,7.73
2019-01-06T09:44:18.021Z,5.77
2019-01-06T09:46:48.124Z,8.00
2019-01-06T09:49:33.258Z,8.00
2019-01-06T09:52:21.820Z,8.97
2019-01-06T09:55:06.687Z,9.77
2019-01-06T09:57:42.230Z,7.30
2019-01-06T10:00:15.357Z,8.90
2019-01-06T10:02:51.009Z,9.37
2019-01-06T10:05:32.861Z,11.47
2019-01-06T10:08:20.992Z,9.63
2019-01-06T10:11:06.982Z,10.20
2019-01-06T10:13:42.655Z,9.17
2019-01-06T10:16:28.881Z,9.57
2019-01-06T10:19:07.959Z,9.00
2019-01-06T10:21:46.887Z,9.10
2019-01-06T10:24:17.038Z,9.00
2019-01-06T10:26:55.808Z,9.40
2019-01-06T10:29:40.665Z,8.60
2019-01-06T10:32:27.035Z,9.20
2019-01-06T10:34:57.118Z,7.63
2019-01-06T10:37:29.614Z,7.87
2019-01-06T10:40:05.657Z,7.10
2019-01-06T10:42:35.732Z,8.13
2019-01-06T10:45:09.078Z,10.23
2019-01-06T10:47:47.854Z,9.77
2019-01-06T10:50:29.957Z,10.30
2019-01-06T10:53:00.023Z,12.53
2019-01-06T10:55:46.307Z,11.93
2019-01-06T10:58:32.518Z,10.10
2019-01-06T11:01:18.871Z,9.80
2019-01-06T11:04:01.077Z,9.10
2019-01-06T11:06:37.451Z,8.80
2019-01-06T11:09:08.471Z,7.67
2019-01-06T11:11:38.552Z,8.13
2019-01-06T11:14:17.803Z,7.97
2019-01-06T11:16:47.865Z,8.67
2019-01-06T11:19:17.927Z,8.50
2019-01-06T11:21:48.025Z,10.30
2019-01-06T11:24:18.166Z,10.20
2019-01-06T11:26:48.294Z,10.63
2019-01-06T11:29:26.798Z,11.67
2019-01-06T11:32:02.741Z,11.20
2019-01-06T11:34:48.887Z,10.00
2019-01-06T11:37:25.207Z,10.90
2019-01-06T11:40:11.464Z,10.93
2019-01-06T11:42:59.283Z,11.30
2019-01-06T11:45:29.327Z,12.43
2019-01-06T11:48:15.688Z,11.87
2019-01-06T11:51:01.750Z,12.23
2019-01-06T11:53:47.970Z,13.83
2019-01-06T11:56:23.950Z,13.63
2019-01-06T11:58:56.828Z,12.63
2019-01-06T12:01:29.577Z,15.13
2019-01-06T12:04:05.448Z,12.90
2019-01-06T12:06:35.545Z,11.90
2019-01-06T12:09:09.729Z,9.43
2019-01-06T12:11:39.812Z,8.57
2019-01-06T12:14:25.026Z,26.80
2019-01-06T12:17:11.358Z,8.60
2019-01-06T12:19:43.924Z,9.50
2019-01-06T12:22:22.688Z,10.07
2019-01-06T12:24:52.754Z,9.07
2019-01-06T12:27:38.989Z,9.50
2019-01-06T12:30:27.165Z,7.87
2019-01-06T12:33:13.196Z,7.47
2019-01-06T12:35:58.526Z,8.70
2019-01-06T12:38:43.564Z,8.50
2019-01-06T12:41:13.635Z,9.00
2019-01-06T12:44:00.198Z,10.10
2019-01-06T12:46:30.258Z,8.87
2019-01-06T12:49:09.379Z,9.40
2019-01-06T12:51:51.352Z,9.27
2019-01-06T12:54:37.450Z,9.60
2019-01-06T12:57:13.503Z,9.53
2019-01-06T12:59:52.503Z,9.47
2019-01-06T13:02:38.686Z,10.30
2019-01-06T13:05:20.689Z,9.80
2019-01-06T13:07:53.255Z,10.07
2019-01-06T13:10:23.315Z,9.40
2019-01-06T13:13:09.910Z,9.43
2019-01-06T13:15:48.815Z,10.03
2019-01-06T13:18:28.202Z,16.40
2019-01-06T13:21:14.530Z,11.10
2019-01-06T13:24:00.621Z,10.57
2019-01-06T13:26:47.094Z,12.17
2019-01-06T13:29:33.555Z,13.53
2019-01-06T13:32:15.854Z,10.50
2019-01-06T13:34:45.945Z,13.23
2019-01-06T13:37:16.015Z,12.13
2019-01-06T13:39:49.143Z,11.20
2019-01-06T13:42:19.212Z,11.77
2019-01-06T13:44:54.900Z,11.10
2019-01-06T13:47:37.232Z,9.80
2019-01-06T13:50:09.062Z,11.00
2019-01-06T13:52:39.120Z,10.37
2019-01-06T13:55:09.274Z,10.30
2019-01-06T13:57:57.203Z,10.87
2019-01-06T14:00:33.575Z,10.47
2019-01-06T14:03:18.566Z,10.00
2019-01-06T14:05:54.615Z,9.80
2019-01-06T14:08:33.423Z,10.90
2019-01-06T14:11:03.513Z,10.23
2019-01-06T14:13:33.577Z,10.93
2019-01-06T14:16:03.672Z,10.90
2019-01-06T14:18:33.796Z,10.50
2019-01-06T14:21:20.476Z,10.90
2019-01-06T14:23:50.614Z,11.20
2019-01-06T14:26:20.717Z,10.43
2019-01-06T14:29:07.004Z,10.70
2019-01-06T14:31:39.806Z,10.93
2019-01-06T14:34:15.891Z,10.43
2019-01-06T14:36:51.718Z,10.03
2019-01-06T14:39:37.916Z,11.03
2019-01-06T14:42:08.006Z,11.80
2019-01-06T14:44:40.787Z,11.07
2019-01-06T14:47:10.881Z,11.47
2019-01-06T14:49:49.975Z,11.53
2019-01-06T14:52:34.768Z,13.07
2019-01-06T14:55:07.879Z,11.30
2019-01-06T14:57:40.654Z,13.00
2019-01-06T15:00:18.512Z,11.77
2019-01-06T15:02:51.103Z,12.70
2019-01-06T15:05:39.248Z,12.80
2019-01-06T15:08:21.091Z,11.90
2019-01-06T15:10:51.153Z,11.30
2019-01-06T15:13:30.163Z,12.70
2019-01-06T15:16:00.215Z,11.50
2019-01-06T15:18:35.817Z,12.67
2019-01-06T15:21:11.623Z,11.87
2019-01-06T15:23:41.722Z,11.87
2019-01-06T15:26:28.002Z,12.37
2019-01-06T15:29:12.826Z,12.17
2019-01-06T15:31:45.655Z,13.20
2019-01-06T15:34:21.539Z,13.40
2019-01-06T15:37:07.845Z,12.83
2019-01-06T15:39:37.917Z,12.90
2019-01-06T15:42:22.797Z,14.20
2019-01-06T15:44:55.856Z,13.10
2019-01-06T15:47:28.418Z,12.57
2019-01-06T15:49:58.492Z,13.37
2019-01-06T15:52:37.752Z,14.00
2019-01-06T15:55:24.316Z,14.57
2019-01-06T15:58:10.487Z,14.40
2019-01-06T16:00:56.530Z,15.07
2019-01-06T16:03:26.630Z,15.40
2019-01-06T16:06:12.982Z,16.03
2019-01-06T16:08:45.604Z,14.40
2019-01-06T16:11:15.686Z,15.30
2019-01-06T16:14:02.192Z,17.60
2019-01-06T16:16:47.002Z,14.93
2019-01-06T16:19:33.745Z,15.93
2019-01-06T16:22:06.983Z,15.30
2019-01-06T16:24:37.099Z,14.57
2019-01-06T16:27:19.175Z,15.43
2019-01-06T16:29:51.773Z,16.70
2019-01-06T16:32:21.841Z,14.73
2019-01-06T16:35:08.297Z,14.20
2019-01-06T16:37:54.835Z,14.70
2019-01-06T16:40:41.076Z,13.30
2019-01-06T16:43:17.330Z,14.70
2019-01-06T16:46:03.262Z,13.60
2019-01-06T16:48:51.234Z,13.17
2019-01-06T16:51:29.855Z,12.20
2019-01-06T16:54:16.030Z,12.27
2019-01-06T16:57:02.107Z,11.90
2019-01-06T16:59:50.521Z,10.97
2019-01-06T17:02:36.513Z,10.43
2019-01-06T17:05:06.979Z,10.70
2019-01-06T17:07:53.167Z,10.70
2019-01-06T17:10:34.752Z,11.63
2019-01-06T17:13:10.766Z,10.13
2019-01-06T17:15:57.229Z,11.33
2019-01-06T17:18:33.141Z,11.23
2019-01-06T17:21:21.245Z,9.57
2019-01-06T17:24:00.279Z,9.90
2019-01-06T17:26:46.866Z,9.70
2019-01-06T17:29:22.993Z,9.83
2019-01-06T17:31:58.983Z,9.67
2019-01-06T17:34:40.729Z,9.30
2019-01-06T17:37:28.846Z,9.23
2019-01-06T17:40:15.089Z,9.07
2019-01-06T17:43:01.168Z,8.30
2019-01-06T17:45:33.731Z,7.10
2019-01-06T17:48:06.932Z,7.90
2019-01-06T17:50:52.231Z,8.27
2019-01-06T17:53:34.540Z,8.20
2019-01-06T17:56:16.663Z,7.60
2019-01-06T17:59:03.229Z,7.60
2019-01-06T18:01:33.285Z,7.63
2019-01-06T18:04:03.373Z,7.67
2019-01-06T18:06:50.035Z,7.30
2019-01-06T18:09:20.099Z,6.93
2019-01-06T18:12:01.713Z,8.20
2019-01-06T18:14:31.880Z,7.90
2019-01-06T18:17:01.990Z,7.20
2019-01-06T18:19:34.768Z,7.10
2019-01-06T18:22:16.893Z,7.40
2019-01-06T18:24:49.572Z,7.67
2019-01-06T18:27:35.577Z,6.90
2019-01-06T18:30:12.679Z,6.97
2019-01-06T18:32:51.527Z,6.50
2019-01-06T18:35:30.415Z,7.33
2019-01-06T18:38:09.527Z,6.97
2019-01-06T18:40:51.601Z,6.77
2019-01-06T18:43:27.485Z,6.93
2019-01-06T18:46:09.264Z,7.50
2019-01-06T18:48:55.271Z,7.07
2019-01-06T18:51:31.137Z,7.00
2019-01-06T18:54:17.618Z,6.80
2019-01-06T18:56:53.336Z,7.70
2019-01-06T18:59:32.089Z,7.17
2019-01-06T19:02:07.964Z,8.50
2019-01-06T19:04:38.051Z,7.67
2019-01-06T19:07:08.118Z,7.77
2019-01-06T19:09:54.325Z,6.90
2019-01-06T19:12:29.980Z,7.23
2019-01-06T19:15:16.517Z,7.63
2019-01-06T19:17:52.559Z,7.30
2019-01-06T19:20:38.941Z,6.63
2019-01-06T19:23:09.014Z,7.90
2019-01-06T19:25:57.507Z,8.07
2019-01-06T19:28:43.694Z,6.80
2019-01-06T19:31:25.620Z,6.70
2019-01-06T19:34:01.665Z,7.13
2019-01-06T19:36:34.433Z,6.93
2019-01-06T19:39:04.562Z,6.80
2019-01-06T19:41:52.874Z,6.07
2019-01-06T19:44:32.139Z,6.33
2019-01-06T19:47:10.920Z,6.63
2019-01-06T19:49:48.861Z,6.30
2019-01-06T19:52:28.110Z,7.07
2019-01-06T19:54:58.170Z,6.23
2019-01-06T19:57:47.172Z,6.97
2019-01-06T20:00:33.881Z,6.60
2019-01-06T20:03:06.862Z,6.40
2019-01-06T20:05:49.044Z,6.90
2019-01-06T20:08:19.144Z,6.47
2019-01-06T20:10:51.994Z,6.93
2019-01-06T20:13:25.170Z,6.07
2019-01-06T20:15:57.942Z,6.90
2019-01-06T20:18:44.145Z,6.77
2019-01-06T20:21:16.896Z,6.70
2019-01-06T20:23:52.991Z,6.20
2019-01-06T20:26:26.182Z,5.77
2019-01-06T20:29:12.592Z,6.50
2019-01-06T20:31:45.095Z,5.87
2019-01-06T20:34:18.208Z,6.67
2019-01-06T20:36:48.329Z,6.20
2019-01-06T20:39:24.242Z,6.70
2019-01-06T20:41:58.716Z,6.53
2019-01-06T20:44:42.521Z,6.20
2019-01-06T20:47:18.329Z,6.27
2019-01-06T20:49:48.468Z,7.37
2019-01-06T20:52:41.788Z,6.23
2019-01-06T20:55:22.961Z,6.17
2019-01-06T20:57:55.461Z,6.50
2019-01-06T21:00:34.659Z,6.27
2019-01-06T21:03:20.765Z,6.53
2019-01-06T21:05:50.849Z,7.20
2019-01-06T21:08:29.816Z,6.40
2019-01-06T21:11:05.397Z,6.60
2019-01-06T21:13:37.937Z,6.40
2019-01-06T21:16:24.347Z,6.77
2019-01-06T21:19:12.779Z,6.70
2019-01-06T21:21:48.610Z,7.03
2019-01-06T21:24:18.669Z,7.90
2019-01-06T21:26:51.646Z,7.47
2019-01-06T21:29:40.143Z,7.70
2019-01-06T21:32:12.915Z,7.20
2019-01-06T21:34:59.188Z,7.00
2019-01-06T21:37:45.764Z,6.90
2019-01-06T21:40:18.831Z,7.33
2019-01-06T21:42:48.927Z,6.90
2019-01-06T21:45:31.194Z,7.20
2019-01-06T21:48:04.010Z,6.20
2019-01-06T21:50:46.006Z,6.60
2019-01-06T21:53:16.095Z,7.27
2019-01-06T21:55:48.864Z,6.70
2019-01-06T21:58:35.093Z,7.33
2019-01-06T22:01:14.044Z,7.60
2019-01-06T22:04:02.642Z,7.60
2019-01-06T22:06:35.158Z,7.30
2019-01-06T22:09:18.277Z,7.10
2019-01-06T22:12:00.727Z,7.27
2019-01-06T22:14:48.902Z,6.70
2019-01-06T22:17:22.073Z,6.73
2019-01-06T22:20:08.102Z,7.17
2019-01-06T22:22:40.887Z,7.50
2019-01-06T22:25:27.159Z,7.87
2019-01-06T22:28:15.339Z,6.10
2019-01-06T22:31:01.524Z,5.90
2019-01-06T22:33:43.521Z,5.70
2019-01-06T22:36:19.335Z,6.33
2019-01-06T22:39:01.210Z,6.83
2019-01-06T22:41:31.275Z,8.10
2019-01-06T22:44:19.568Z,7.03
2019-01-06T22:46:49.628Z,6.67
2019-01-06T22:49:19.710Z,6.87
2019-01-06T22:52:05.910Z,7.50
2019-01-06T22:54:36.189Z,6.67
2019-01-06T22:57:12.173Z,6.07
2019-01-06T22:59:58.080Z,7.30
2019-01-06T23:02:33.837Z,6.27
2019-01-06T23:05:03.930Z,6.67
2019-01-06T23:07:34.000Z,6.30
2019-01-06T23:10:04.095Z,7.37
2019-01-06T23:12:45.798Z,6.43
2019-01-06T23:15:31.843Z,6.53
2019-01-06T23:18:01.902Z,7.07
2019-01-06T23:20:34.434Z,5.97
2019-01-06T23:23:04.497Z,6.13
2019-01-06T23:25:37.196Z,6.60
2019-01-06T23:28:09.936Z,7.10
2019-01-06T23:30:52.303Z,7.10
2019-01-06T23:33:22.372Z,7.33
2019-01-06T23:35:55.139Z,8.60
2019-01-06T23:38:36.858Z,7.87
2019-01-06T23:41:09.629Z,7.07
2019-01-06T23:43:39.679Z,6.83
2019-01-06T23:46:09.774Z,9.00
2019-01-06T23:48:45.567Z,6.93
2019-01-06T23:51:24.368Z,7.07
2019-01-06T23:54:09.562Z,8.23
2019-01-06T23:56:57.687Z,8.00
2019-01-06T23:59:33.498Z,7.70
